Time;durP1;ratioP1;P1;durP2;ratioP2;P2;SDS_P1;SDS_P2;PMS_P1;PMS_P2;Temp;Humidity;BMP_temperature;BMP_pressure;BME280_temperature;BME280_humidity;BME280_pressure;Samples;Min_cycle;Max_cycle;Signal;HPM_P1;HPM_P2
2021/03/22 00:01:13;;;;;;;35.23;10.97;;;;;;;4.54;63.70;96917.00;5076120;28;20182;-69
2021/03/22 00:03:39;;;;;;;36.13;11.60;;;;;;;4.41;63.76;96917.13;5067339;28;20197;-69
2021/03/22 00:06:05;;;;;;;37.33;10.97;;;;;;;4.41;63.74;96911.94;5071915;28;20801;-69
2021/03/22 00:08:32;;;;;;;39.77;12.17;;;;;;;4.07;64.40;96924.97;5081758;28;20444;-71
2021/03/22 00:10:58;;;;;;;33.87;11.40;;;;;;;4.26;64.04;96928.75;5080554;28;20431;-73
2021/03/22 00:13:25;;;;;;;26.10;11.00;;;;;;;4.21;64.03;96926.50;5082363;28;20504;-71
2021/03/22 00:15:53;;;;;;;34.50;10.80;;;;;;;4.49;63.70;96919.13;5080127;28;20504;-70
2021/03/22 00:18:23;;;;;;;32.60;10.40;;;;;;;4.32;64.38;96920.47;5077156;28;20444;-71
2021/03/22 00:20:49;;;;;;;26.47;10.27;;;;;;;4.53;63.47;96914.53;5061239;28;20467;-69
2021/03/22 00:23:15;;;;;;;37.90;10.30;;;;;;;4.50;63.21;96912.19;5078245;28;20417;-69
2021/03/22 00:25:41;;;;;;;27.00;10.00;;;;;;;4.57;62.86;96919.38;5068649;28;20963;-70
2021/03/22 00:28:08;;;;;;;25.77;9.77;;;;;;;4.72;62.94;96909.53;5059265;28;20449;-70
2021/03/22 00:30:36;;;;;;;34.13;10.33;;;;;;;4.75;62.78;96914.47;5068803;28;20202;-71
2021/03/22 00:33:03;;;;;;;31.27;9.87;;;;;;;4.76;62.96;96913.53;5074903;28;20516;-70
2021/03/22 00:35:29;;;;;;;29.90;10.00;;;;;;;4.52;62.87;96916.31;5062634;28;20424;-70
2021/03/22 00:37:55;;;;;;;37.23;8.77;;;;;;;4.58;63.25;96917.59;5044325;28;20437;-71
2021/03/22 00:40:24;;;;;;;30.63;9.50;;;;;;;4.72;62.98;96916.50;5069688;28;20187;-71
2021/03/22 00:42:50;;;;;;;27.33;9.37;;;;;;;4.55;63.04;96917.81;5072740;28;20464;-70
2021/03/22 00:45:17;;;;;;;29.20;10.13;;;;;;;4.66;63.02;96917.81;5076376;28;20421;-70
2021/03/22 00:47:46;;;;;;;24.50;8.90;;;;;;;4.72;62.77;96919.91;5057123;28;20211;-70
2021/03/22 00:50:19;;;;;;;34.17;9.53;;;;;;;4.88;62.55;96913.50;5071011;28;20950;-68
2021/03/22 00:52:44;;;;;;;34.67;9.50;;;;;;;4.74;62.47;96910.22;5073706;28;20551;-70
2021/03/22 00:55:10;;;;;;;31.83;10.37;;;;;;;4.85;62.53;96916.31;5074337;28;20481;-69
2021/03/22 00:57:36;;;;;;;29.23;10.60;;;;;;;4.85;62.05;96916.31;5070161;28;20595;-67
2021/03/22 01:00:06;;;;;;;30.23;9.50;;;;;;;4.76;62.78;96907.50;5074135;28;20182;-71
2021/03/22 01:02:31;;;;;;;29.33;10.20;;;;;;;4.85;62.53;96909.34;5071409;28;20189;-69
2021/03/22 01:04:57;;;;;;;23.90;8.30;;;;;;;4.87;62.38;96909.25;5073662;28;20515;-69
2021/03/22 01:07:22;;;;;;;29.37;8.70;;;;;;;4.68;62.20;96908.13;5070470;28;20204;-68
2021/03/22 01:09:48;;;;;;;27.70;8.97;;;;;;;4.54;63.10;96901.44;5071063;28;20221;-68
2021/03/22 01:12:14;;;;;;;28.00;9.20;;;;;;;4.60;62.95;96900.13;5055370;28;20224;-68
2021/03/22 01:14:39;;;;;;;45.00;10.03;;;;;;;4.63;62.68;96899.03;5055929;28;20190;-68
2021/03/22 01:17:05;;;;;;;37.90;8.87;;;;;;;4.64;62.28;96891.16;5071172;28;20229;-67
2021/03/22 01:19:32;;;;;;;28.03;7.90;;;;;;;4.73;61.69;96899.94;5072038;28;20645;-69
2021/03/22 01:22:00;;;;;;;32.27;8.97;;;;;;;4.54;62.71;96892.81;5073545;28;20210;-68
2021/03/22 01:24:27;;;;;;;39.67;7.70;;;;;;;4.60;61.68;96900.13;5071837;28;20421;-69
2021/03/22 01:26:56;;;;;;;27.77;8.67;;;;;;;4.73;61.77;96897.34;5066042;28;20481;-68
2021/03/22 01:29:23;;;;;;;35.80;8.30;;;;;;;4.52;61.56;96897.31;5072757;28;20482;-67
2021/03/22 01:31:49;;;;;;;22.17;7.10;;;;;;;4.61;61.29;96886.19;5073075;28;20443;-69
2021/03/22 01:34:15;;;;;;;32.30;8.00;;;;;;;4.94;60.66;96889.59;5074145;28;20520;-68
2021/03/22 01:36:41;;;;;;;20.77;6.53;;;;;;;4.82;60.78;96885.41;5071927;28;20178;-68
2021/03/22 01:39:13;;;;;;;19.37;6.43;;;;;;;4.71;61.66;96889.69;5071480;28;20417;-68
2021/03/22 01:42:16;;;;;;;27.93;8.33;;;;;;;4.63;61.98;96884.31;5069944;28;20542;-68
2021/03/22 01:44:45;;;;;;;28.83;9.43;;;;;;;4.63;61.56;96884.31;5068805;28;20424;-67
2021/03/22 01:47:22;;;;;;;35.27;8.50;;;;;;;4.82;61.91;96880.22;5075572;28;20475;-68
2021/03/22 01:49:50;;;;;;;26.40;8.20;;;;;;;4.71;62.15;96887.09;5071770;28;20785;-69
2021/03/22 01:52:17;;;;;;;31.93;7.67;;;;;;;4.92;60.75;96883.72;5071003;28;20533;-68
2021/03/22 01:54:43;;;;;;;22.63;7.17;;;;;;;5.08;60.93;96880.72;5072834;28;20467;-67
2021/03/22 01:57:29;;;;;;;32.80;8.00;;;;;;;4.41;62.80;96880.00;5054690;28;20453;-67
2021/03/22 02:00:11;;;;;;;24.27;6.90;;;;;;;4.72;61.96;96882.75;5069885;28;20183;-68
2021/03/22 02:02:39;;;;;;;38.37;8.03;;;;;;;4.76;62.04;96879.78;5077062;28;20409;-68
2021/03/22 02:05:08;;;;;;;29.77;7.37;;;;;;;4.76;61.54;96878.94;5064244;28;20414;-68
2021/03/22 02:07:34;;;;;;;34.70;8.00;;;;;;;4.56;62.42;96875.34;5071796;28;21094;-67
2021/03/22 02:10:00;;;;;;;32.43;7.20;;;;;;;4.89;61.76;96873.59;5059178;28;20424;-68
2021/03/22 02:12:26;;;;;;;27.93;6.77;;;;;;;4.80;61.68;96877.75;5073820;28;20728;-67
2021/03/22 02:14:53;;;;;;;39.90;8.60;;;;;;;4.68;61.96;96882.16;5075232;28;20175;-67
2021/03/22 02:17:39;;;;;;;24.10;6.87;;;;;;;4.86;61.09;96879.03;5071341;28;21010;-68
2021/03/22 02:20:32;;;;;;;44.77;8.17;;;;;;;4.74;62.23;96876.47;5071404;28;20472;-69
2021/03/22 02:23:22;;;;;;;22.13;6.60;;;;;;;4.72;62.18;96874.97;5071447;28;20496;-69
2021/03/22 02:26:05;;;;;;;25.47;6.43;;;;;;;4.78;62.13;96868.44;5067424;28;20428;-68
2021/03/22 02:28:46;;;;;;;32.43;7.80;;;;;;;4.72;62.39;96877.56;5062390;28;20464;-69
2021/03/22 02:31:30;;;;;;;31.10;7.13;;;;;;;4.59;61.99;96882.91;5055523;28;20470;-69
2021/03/22 02:34:07;;;;;;;22.83;7.77;;;;;;;4.43;62.83;96893.69;5071395;28;20995;-67
2021/03/22 02:37:10;;;;;;;28.87;7.37;;;;;;;4.60;62.33;96894.94;5068432;28;20420;-67
2021/03/22 02:39:52;;;;;;;24.97;7.77;;;;;;;4.48;62.59;96890.72;5066602;28;20503;-68
2021/03/22 02:42:19;;;;;;;26.53;6.37;;;;;;;4.72;61.07;96898.31;5075113;28;20408;-67
2021/03/22 02:44:44;;;;;;;32.20;6.90;;;;;;;4.20;62.78;96895.47;5066761;28;20444;-68
2021/03/22 02:47:26;;;;;;;28.60;6.00;;;;;;;4.50;62.60;96896.63;5076000;28;20520;-68
2021/03/22 02:49:55;;;;;;;32.03;6.83;;;;;;;4.39;62.84;96893.09;5075377;28;20274;-67
2021/03/22 02:52:33;;;;;;;31.83;7.00;;;;;;;4.38;62.25;96891.44;5075426;28;20452;-67
2021/03/22 02:55:11;;;;;;;31.80;6.67;;;;;;;4.44;62.26;96896.13;5074534;28;20425;-70
2021/03/22 02:57:57;;;;;;;27.70;6.67;;;;;;;4.40;61.73;96889.56;5070647;28;20468;-67
2021/03/22 03:00:32;;;;;;;26.57;5.80;;;;;;;4.59;61.85;96888.09;5061507;28;20503;-68
2021/03/22 03:03:00;;;;;;;28.03;5.17;;;;;;;4.48;61.81;96891.53;5081240;28;20423;-68
2021/03/22 03:05:28;;;;;;;29.70;6.20;;;;;;;4.30;62.02;96899.00;5088691;28;20427;-68
2021/03/22 03:07:56;;;;;;;30.77;5.50;;;;;;;4.25;61.57;96893.34;5079804;28;20467;-68
2021/03/22 03:10:21;;;;;;;36.60;5.43;;;;;;;4.25;62.16;96896.75;5077614;28;20448;-68
2021/03/22 03:12:47;;;;;;;27.40;6.40;;;;;;;4.10;62.45;96895.34;5074368;28;20583;-68
2021/03/22 03:15:14;;;;;;;40.03;5.97;;;;;;;4.29;62.03;96893.00;5075179;28;20413;-68
2021/03/22 03:17:39;;;;;;;25.23;5.37;;;;;;;4.26;61.38;96897.59;5073920;28;20252;-66
2021/03/22 03:20:13;;;;;;;35.20;6.10;;;;;;;4.24;61.72;96902.88;5056409;28;20820;-69
2021/03/22 03:22:40;;;;;;;23.77;5.70;;;;;;;4.29;61.22;96898.19;5075454;28;20213;-69
2021/03/22 03:25:09;;;;;;;18.77;5.03;;;;;;;4.55;60.62;96897.06;5064384;28;21003;-69
2021/03/22 03:27:35;;;;;;;31.40;5.23;;;;;;;4.57;61.03;96897.75;5068825;28;20448;-68
2021/03/22 03:30:00;;;;;;;21.80;5.07;;;;;;;4.28;61.32;96912.09;5074145;28;20823;-68
2021/03/22 03:32:26;;;;;;;27.77;6.40;;;;;;;4.19;61.12;96912.81;5073744;28;20210;-68
2021/03/22 03:34:52;;;;;;;19.40;5.47;;;;;;;4.32;61.22;96909.28;5073987;28;20182;-67
2021/03/22 03:37:18;;;;;;;28.63;4.70;;;;;;;4.23;60.66;96913.41;5072937;28;20202;-67
2021/03/22 03:39:43;;;;;;;28.47;6.03;;;;;;;4.19;61.13;96915.41;5074511;28;20213;-67
2021/03/22 03:42:10;;;;;;;29.03;5.80;;;;;;;4.41;60.44;96916.31;5075255;28;20240;-68
2021/03/22 03:44:37;;;;;;;35.47;6.27;;;;;;;3.86;61.26;96917.06;5074896;28;20288;-69
2021/03/22 03:47:04;;;;;;;23.33;5.10;;;;;;;4.48;60.76;96929.66;5077781;28;20432;-68
2021/03/22 03:49:29;;;;;;;31.73;5.53;;;;;;;4.46;60.23;96920.19;5058252;28;20773;-66
2021/03/22 03:51:55;;;;;;;34.00;6.00;;;;;;;4.30;60.58;96917.16;5054631;28;20428;-68
2021/03/22 03:54:21;;;;;;;28.37;5.40;;;;;;;4.00;62.02;96918.59;5065585;28;20265;-68
2021/03/22 03:56:46;;;;;;;33.97;6.50;;;;;;;4.14;62.01;96915.78;5072658;28;20179;-66
2021/03/22 03:59:12;;;;;;;28.07;6.00;;;;;;;3.96;62.44;96912.84;5068093;28;20174;-68
2021/03/22 04:01:38;;;;;;;22.60;7.30;;;;;;;4.30;61.41;96919.75;5074144;28;20653;-68
2021/03/22 04:04:04;;;;;;;19.83;5.27;;;;;;;4.33;61.67;96914.31;5074975;28;20225;-67
2021/03/22 04:06:32;;;;;;;20.73;6.07;;;;;;;4.15;62.26;96917.44;5073279;28;20519;-67
2021/03/22 04:09:12;;;;;;;22.37;5.37;;;;;;;4.15;62.10;96920.03;5073071;28;20436;-66
2021/03/22 04:11:47;;;;;;;27.73;5.90;;;;;;;3.96;62.53;96918.03;5072916;28;20417;-69
2021/03/22 04:14:22;;;;;;;28.63;5.53;;;;;;;3.73;63.29;96924.97;5073319;28;20416;-70
2021/03/22 04:16:48;;;;;;;25.43;5.03;;;;;;;4.32;61.94;96922.25;5072433;28;20424;-68
2021/03/22 04:19:14;;;;;;;31.90;7.07;;;;;;;4.28;61.72;96929.44;5065914;28;20768;-70
2021/03/22 04:21:39;;;;;;;21.17;5.70;;;;;;;3.94;63.05;96916.47;5072651;28;20178;-68
2021/03/22 04:24:06;;;;;;;24.17;5.17;;;;;;;3.76;62.91;96918.69;5069949;28;20413;-69
2021/03/22 04:26:32;;;;;;;24.27;5.53;;;;;;;3.98;62.91;96926.50;5074263;28;20201;-69
2021/03/22 04:28:57;;;;;;;33.17;6.33;;;;;;;4.17;62.22;96930.28;5065640;28;20996;-67
2021/03/22 04:31:25;;;;;;;29.90;6.13;;;;;;;4.10;62.53;96924.72;5072190;28;20718;-67
2021/03/22 04:33:52;;;;;;;27.17;6.73;;;;;;;4.51;61.34;96926.81;5071139;28;20202;-68
2021/03/22 04:36:25;;;;;;;25.87;5.70;;;;;;;4.27;62.05;96925.19;5073564;28;20954;-68
2021/03/22 04:38:51;;;;;;;18.60;5.33;;;;;;;4.19;62.41;96928.38;5075823;28;20432;-69
2021/03/22 04:41:16;;;;;;;24.87;5.37;;;;;;;4.27;62.13;96930.38;5063285;28;20421;-69
2021/03/22 04:43:42;;;;;;;23.80;5.90;;;;;;;4.56;61.91;96929.84;5085280;28;20183;-68
2021/03/22 04:46:08;;;;;;;28.67;5.53;;;;;;;4.46;62.13;96930.59;5074623;28;20175;-67
2021/03/22 04:48:34;;;;;;;35.87;6.73;;;;;;;4.17;61.96;96929.44;5066235;28;20782;-69
2021/03/22 04:51:00;;;;;;;21.00;5.40;;;;;;;4.02;62.75;96937.47;5056814;28;20183;-68
2021/03/22 04:53:26;;;;;;;29.20;5.97;;;;;;;4.14;61.95;96941.72;5077271;28;20822;-69
2021/03/22 04:55:51;;;;;;;26.30;6.03;;;;;;;4.19;61.73;96935.31;5086148;28;20178;-69
2021/03/22 04:58:17;;;;;;;25.20;5.37;;;;;;;4.27;61.48;96935.56;5077066;28;20217;-69
2021/03/22 05:00:45;;;;;;;21.13;5.30;;;;;;;4.26;61.24;96931.31;5080644;28;20179;-69
2021/03/22 05:03:13;;;;;;;31.83;4.50;;;;;;;4.34;60.98;96934.16;5053369;28;20171;-68
2021/03/22 05:05:40;;;;;;;20.90;5.47;;;;;;;4.43;60.39;96938.59;5053200;28;20418;-68
2021/03/22 05:08:08;;;;;;;24.47;5.50;;;;;;;4.28;60.64;96938.03;5053079;28;21236;-68
2021/03/22 05:10:37;;;;;;;24.53;5.10;;;;;;;3.95;61.38;96938.88;5049587;28;20414;-68
2021/03/22 05:13:04;;;;;;;25.70;5.00;;;;;;;4.29;61.11;96937.09;5052306;28;20531;-66
2021/03/22 05:15:30;;;;;;;27.47;4.70;;;;;;;4.22;61.27;96938.50;5051432;28;20443;-67
2021/03/22 05:17:56;;;;;;;33.43;5.60;;;;;;;4.15;61.32;96939.94;5055748;28;20847;-68
2021/03/22 05:20:37;;;;;;;20.13;4.70;;;;;;;4.06;60.70;96948.44;5060646;28;20175;-67
2021/03/22 05:23:06;;;;;;;22.77;5.10;;;;;;;4.12;60.70;96947.94;5052809;28;20456;-68
2021/03/22 05:25:32;;;;;;;29.13;5.53;;;;;;;4.25;60.89;96953.84;5034782;28;20425;-69
2021/03/22 05:27:59;;;;;;;19.60;4.90;;;;;;;4.25;60.11;96953.03;5054430;28;20506;-69
2021/03/22 05:30:26;;;;;;;34.40;6.40;;;;;;;4.27;59.86;96946.75;5049722;28;20174;-68
2021/03/22 05:32:56;;;;;;;23.10;4.67;;;;;;;4.00;60.27;96960.09;5053400;28;20542;-67
2021/03/22 05:35:22;;;;;;;15.50;3.93;;;;;;;4.28;60.12;96952.78;5051232;28;20414;-68
2021/03/22 05:37:47;;;;;;;24.80;4.57;;;;;;;4.15;60.48;96955.50;5051986;28;20446;-67
2021/03/22 05:40:25;;;;;;;26.93;5.50;;;;;;;4.19;59.98;96959.50;5051633;28;20678;-68
2021/03/22 05:43:04;;;;;;;24.27;4.80;;;;;;;4.23;60.17;96957.50;5051789;28;20178;-67
2021/03/22 05:45:52;;;;;;;22.73;5.07;;;;;;;4.35;60.04;96969.53;5050953;28;20420;-68
2021/03/22 05:48:26;;;;;;;29.07;4.80;;;;;;;4.25;59.67;96968.59;5047611;28;20800;-67
2021/03/22 05:51:17;;;;;;;24.27;5.43;;;;;;;4.26;60.18;96972.84;5053247;28;20413;-68
2021/03/22 05:54:19;;;;;;;18.37;4.70;;;;;;;4.27;60.18;96972.72;5051975;28;20522;-68
2021/03/22 05:56:54;;;;;;;22.97;4.90;;;;;;;4.27;60.36;96967.53;5048395;28;20542;-67
2021/03/22 05:59:38;;;;;;;19.63;4.77;;;;;;;4.31;59.63;96968.09;5051335;28;20465;-68
2021/03/22 06:02:10;;;;;;;30.03;5.13;;;;;;;4.15;60.18;96974.50;5052576;28;20947;-69
2021/03/22 06:04:40;;;;;;;27.43;5.27;;;;;;;4.21;59.58;96978.38;5050770;28;20954;-67
2021/03/22 06:07:07;;;;;;;19.50;4.10;;;;;;;4.35;59.51;96976.50;5064270;28;20527;-68
2021/03/22 06:09:41;;;;;;;24.33;4.00;;;;;;;4.68;58.44;96982.59;5085941;28;20428;-68
2021/03/22 06:12:12;;;;;;;25.30;4.40;;;;;;;4.22;60.33;96979.19;5070715;28;20461;-67
2021/03/22 06:14:56;;;;;;;21.33;5.00;;;;;;;4.24;60.49;96978.13;5052319;28;20852;-67
2021/03/22 06:17:33;;;;;;;22.30;4.63;;;;;;;4.14;61.27;96984.97;5045133;28;20440;-68
2021/03/22 06:20:00;;;;;;;33.07;6.30;;;;;;;4.05;61.84;96985.69;5051654;28;20497;-68
2021/03/22 06:22:31;;;;;;;34.53;6.03;;;;;;;4.12;61.98;96995.47;5059920;28;20406;-68
2021/03/22 06:24:57;;;;;;;31.73;5.90;;;;;;;4.34;60.80;96993.00;5051046;28;20819;-67
2021/03/22 06:27:23;;;;;;;34.87;5.83;;;;;;;4.12;61.75;96990.28;5052135;28;20536;-68
2021/03/22 06:29:52;;;;;;;30.17;6.50;;;;;;;4.18;62.20;96995.94;5049438;28;20790;-67
2021/03/22 06:32:21;;;;;;;30.30;5.83;;;;;;;4.43;61.68;96993.09;5051273;28;20456;-68
2021/03/22 06:34:55;;;;;;;28.73;6.10;;;;;;;4.32;62.05;96993.09;5049382;28;20472;-70
2021/03/22 06:37:31;;;;;;;32.57;5.60;;;;;;;3.96;62.90;96995.81;5050038;28;20490;-67
2021/03/22 06:40:15;;;;;;;41.60;6.47;;;;;;;3.91;63.37;96997.91;5050292;28;20881;-67
2021/03/22 06:42:42;;;;;;;23.47;5.23;;;;;;;4.29;62.25;96996.78;5050238;28;20409;-67
2021/03/22 06:45:34;;;;;;;23.10;5.53;;;;;;;4.17;62.70;96997.72;5049609;28;21066;-68
2021/03/22 06:48:15;;;;;;;22.97;5.13;;;;;;;4.30;62.75;97005.38;5047683;28;20512;-69
2021/03/22 06:50:41;;;;;;;38.27;7.00;;;;;;;4.34;61.99;97003.38;5050466;28;20881;-69
2021/03/22 06:53:07;;;;;;;27.77;5.83;;;;;;;4.18;62.25;97008.91;5050487;28;20464;-68
2021/03/22 06:55:41;;;;;;;23.63;5.00;;;;;;;4.64;61.41;97014.91;5050854;28;20168;-66
2021/03/22 06:58:07;;;;;;;28.97;5.50;;;;;;;4.26;62.20;97014.34;5047278;28;20445;-69
2021/03/22 07:00:35;;;;;;;21.33;5.60;;;;;;;4.14;62.06;97024.72;5049593;28;20425;-68
2021/03/22 07:03:03;;;;;;;24.77;5.03;;;;;;;4.27;62.15;97013.41;5050191;28;20432;-69
2021/03/22 07:05:31;;;;;;;24.33;5.50;;;;;;;4.35;62.20;97015.44;5049155;28;20421;-68
2021/03/22 07:08:13;;;;;;;18.67;5.10;;;;;;;4.51;61.47;97020.25;5060279;28;20441;-68
2021/03/22 07:10:39;;;;;;;28.00;5.73;;;;;;;4.52;60.34;97022.72;5052950;28;20421;-69
2021/03/22 07:13:07;;;;;;;23.27;5.43;;;;;;;4.33;61.47;97023.31;5069250;28;20590;-68
2021/03/22 07:15:37;;;;;;;29.03;6.07;;;;;;;4.23;61.61;97022.38;5062844;28;20171;-70
2021/03/22 07:18:06;;;;;;;27.27;5.50;;;;;;;4.07;62.63;97028.69;5067230;28;20471;-69
2021/03/22 07:20:32;;;;;;;22.77;5.93;;;;;;;4.39;61.35;97027.19;5062499;28;20427;-68
2021/03/22 07:23:10;;;;;;;30.77;5.93;;;;;;;4.69;60.76;97024.00;5070225;28;20417;-70
2021/03/22 07:25:43;;;;;;;26.40;5.53;;;;;;;4.37;61.49;97022.13;5068613;28;20416;-69
2021/03/22 07:28:15;;;;;;;24.17;4.90;;;;;;;4.22;61.24;97031.09;5072608;28;20885;-68
2021/03/22 07:30:52;;;;;;;21.73;4.03;;;;;;;4.34;60.48;97030.16;5073297;28;20482;-69
2021/03/22 07:33:24;;;;;;;18.40;5.10;;;;;;;4.18;61.34;97022.72;5072445;28;20447;-67
2021/03/22 07:36:06;;;;;;;31.73;4.90;;;;;;;4.39;60.52;97028.03;5068749;28;20433;-69
2021/03/22 07:38:57;;;;;;;34.17;5.00;;;;;;;4.40;60.37;97034.88;5073201;28;20459;-67
2021/03/22 07:41:43;;;;;;;14.57;4.70;;;;;;;4.93;59.46;97038.59;5056198;28;20512;-68
2021/03/22 07:44:26;;;;;;;19.67;5.30;;;;;;;4.98;59.25;97033.88;5073839;28;20417;-68
2021/03/22 07:47:17;;;;;;;29.40;4.60;;;;;;;4.77;58.99;97038.97;5073571;28;20509;-66
2021/03/22 07:50:01;;;;;;;30.37;5.23;;;;;;;4.82;58.80;97041.22;5073313;28;20489;-68
2021/03/22 07:52:33;;;;;;;24.63;4.80;;;;;;;4.65;59.05;97045.97;5073770;28;20460;-66
2021/03/22 07:55:27;;;;;;;20.93;4.20;;;;;;;4.69;58.48;97047.38;5071714;28;20456;-68
2021/03/22 07:57:59;;;;;;;20.93;4.00;;;;;;;4.95;59.07;97048.88;5068341;28;21003;-68
2021/03/22 08:00:55;;;;;;;17.87;4.37;;;;;;;4.63;58.77;97042.66;5071389;28;20420;-69
2021/03/22 08:03:38;;;;;;;17.40;3.60;;;;;;;5.08;57.18;97050.38;5072792;28;20440;-67
2021/03/22 08:06:19;;;;;;;15.50;3.70;;;;;;;4.82;58.63;97047.25;5068646;28;20454;-67
2021/03/22 08:09:09;;;;;;;13.90;3.10;;;;;;;4.94;57.45;97048.03;5072743;28;20440;-69
2021/03/22 08:11:47;;;;;;;14.73;3.10;;;;;;;4.71;57.65;97061.06;5072402;28;20450;-69
2021/03/22 08:14:21;;;;;;;5.57;2.23;;;;;;;4.86;57.60;97060.81;5072048;28;20484;-68
2021/03/22 08:17:29;;;;;;;21.80;4.00;;;;;;;4.79;58.00;97059.66;5072452;28;20421;-68
2021/03/22 08:19:55;;;;;;;39.13;9.00;;;;;;;4.91;57.92;97069.09;5024391;28;20804;-70
2021/03/22 08:22:40;;;;;;;58.03;13.43;;;;;;;5.28;55.94;97073.13;5073530;28;20520;-68
2021/03/22 08:25:34;;;;;;;23.13;4.70;;;;;;;5.44;55.59;97090.91;5053410;28;20189;-69
2021/03/22 08:28:11;;;;;;;43.00;9.40;;;;;;;5.20;56.39;97084.13;5073129;28;20535;-68
2021/03/22 08:30:44;;;;;;;16.83;3.57;;;;;;;5.19;56.08;97087.66;5063601;28;20424;-70
2021/03/22 08:33:25;;;;;;;13.07;3.33;;;;;;;5.10;56.85;97091.00;5064412;28;20452;-68
2021/03/22 08:36:05;;;;;;;19.00;4.30;;;;;;;5.27;56.35;97095.69;5068068;28;21098;-69
2021/03/22 08:38:43;;;;;;;72.97;14.20;;;;;;;5.11;56.59;97090.06;5070721;28;20471;-68
2021/03/22 08:41:26;;;;;;;66.63;11.77;;;;;;;4.96;57.26;97098.09;5071106;28;20423;-68
2021/03/22 08:43:58;;;;;;;41.13;9.73;;;;;;;4.96;56.54;97087.72;5071439;28;20425;-68
2021/03/22 08:46:35;;;;;;;25.23;5.97;;;;;;;5.66;55.61;97106.47;5072670;28;20443;-68
2021/03/22 08:49:02;;;;;;;28.37;4.40;;;;;;;4.74;57.27;97099.78;5070832;28;20466;-69
2021/03/22 08:51:32;;;;;;;20.00;4.03;;;;;;;5.01;57.25;97103.78;5053929;28;20532;-69
2021/03/22 08:53:59;;;;;;;19.53;4.20;;;;;;;5.41;56.40;97101.56;5071235;28;20560;-69
2021/03/22 08:56:27;;;;;;;11.93;3.90;;;;;;;5.37;55.58;97101.81;5071004;28;21093;-69
2021/03/22 08:58:58;;;;;;;17.40;4.00;;;;;;;5.46;55.92;97110.66;5064829;28;20954;-68
2021/03/22 09:01:31;;;;;;;18.03;3.77;;;;;;;5.56;54.87;97099.53;5066294;28;20915;-69
2021/03/22 09:04:09;;;;;;;12.93;3.40;;;;;;;5.56;55.13;97109.91;5074099;28;20427;-69
2021/03/22 09:06:35;;;;;;;12.53;3.20;;;;;;;5.68;53.90;97108.94;5069474;28;20412;-68
2021/03/22 09:09:22;;;;;;;12.10;2.80;;;;;;;6.22;52.83;97107.16;5067449;28;20499;-68
2021/03/22 09:11:50;;;;;;;14.53;3.63;;;;;;;6.01;53.46;97106.34;5045344;28;20866;-67
2021/03/22 09:14:15;;;;;;;10.43;2.63;;;;;;;5.39;55.52;97114.69;5050888;28;20461;-67
2021/03/22 09:16:50;;;;;;;8.77;2.80;;;;;;;5.44;55.21;97120.34;5069542;28;20417;-67
2021/03/22 09:19:16;;;;;;;9.00;3.50;;;;;;;5.70;54.92;97122.63;5068186;28;20190;-67
2021/03/22 09:21:47;;;;;;;24.53;3.73;;;;;;;6.18;53.58;97116.16;5068050;28;20519;-68
2021/03/22 09:24:43;;;;;;;10.17;2.90;;;;;;;5.61;54.55;97119.00;5069763;28;20950;-68
2021/03/22 09:27:20;;;;;;;10.27;2.10;;;;;;;5.69;54.21;97124.41;5073936;28;20516;-70
2021/03/22 09:30:00;;;;;;;12.20;2.27;;;;;;;5.87;54.22;97129.06;5071619;28;20424;-67
2021/03/22 09:32:27;;;;;;;10.37;2.93;;;;;;;5.35;55.38;97134.91;5073414;28;20514;-68
2021/03/22 09:35:32;;;;;;;9.23;2.73;;;;;;;5.96;54.24;97128.31;5068057;28;20751;-69
2021/03/22 09:38:01;;;;;;;13.50;3.90;;;;;;;5.13;56.35;97134.94;5066297;28;20559;-67
2021/03/22 09:40:27;;;;;;;12.67;2.60;;;;;;;5.18;57.41;97138.81;5068657;28;20915;-68
2021/03/22 09:43:17;;;;;;;13.00;3.70;;;;;;;5.49;56.33;97133.78;5071458;28;20419;-69
2021/03/22 09:45:56;;;;;;;11.60;4.20;;;;;;;5.90;56.73;97134.03;5059823;28;20182;-68
2021/03/22 09:48:42;;;;;;;18.77;4.23;;;;;;;5.68;57.75;97137.53;5049688;28;20444;-68
2021/03/22 09:51:08;;;;;;;11.40;4.20;;;;;;;6.13;56.98;97129.56;5088675;28;20427;-68
2021/03/22 09:53:53;;;;;;;17.00;2.90;;;;;;;5.73;56.50;97131.97;5048348;28;20557;-68
2021/03/22 09:56:40;;;;;;;11.47;4.07;;;;;;;6.04;55.82;97135.53;5033929;28;20269;-67
2021/03/22 09:59:24;;;;;;;9.13;2.73;;;;;;;6.44;54.59;97127.03;5033147;28;20511;-67
2021/03/22 10:01:51;;;;;;;11.10;3.23;;;;;;;6.87;53.01;97125.19;5052940;28;20414;-67
2021/03/22 10:04:22;;;;;;;12.73;3.03;;;;;;;6.73;53.33;97118.56;5058976;28;20432;-67
2021/03/22 10:07:08;;;;;;;12.60;3.60;;;;;;;6.38;53.51;97131.94;5051195;28;20435;-67
2021/03/22 10:09:34;;;;;;;7.97;2.90;;;;;;;7.00;52.03;97132.75;5049496;28;20483;-68
2021/03/22 10:12:13;;;;;;;13.87;3.77;;;;;;;6.67;52.26;97129.47;5051703;28;20794;-66
2021/03/22 10:14:42;;;;;;;10.70;3.63;;;;;;;6.98;51.61;97129.50;5051982;28;20186;-69
2021/03/22 10:17:20;;;;;;;10.77;3.40;;;;;;;6.79;51.87;97132.84;5056953;28;20450;-67
2021/03/22 10:19:46;;;;;;;9.07;3.17;;;;;;;6.25;52.48;97132.09;5050316;28;20429;-67
2021/03/22 10:22:21;;;;;;;8.10;3.23;;;;;;;6.82;51.55;97127.34;5049802;28;20475;-67
2021/03/22 10:25:10;;;;;;;6.40;2.53;;;;;;;7.00;50.96;97126.75;5032841;28;20182;-67
2021/03/22 10:27:37;;;;;;;7.53;3.27;;;;;;;6.22;52.67;97138.41;5049820;28;20452;-66
2021/03/22 10:30:10;;;;;;;12.73;3.20;;;;;;;6.73;51.92;97141.16;5050599;28;20897;-67
2021/03/22 10:32:42;;;;;;;9.90;2.60;;;;;;;7.14;50.11;97136.81;5058448;28;20469;-67
2021/03/22 10:35:16;;;;;;;5.97;3.10;;;;;;;6.63;51.36;97145.50;5052230;28;20957;-67
2021/03/22 10:37:51;;;;;;;9.73;3.13;;;;;;;6.26;52.33;97138.97;5049757;28;20445;-66
2021/03/22 10:40:24;;;;;;;9.07;2.90;;;;;;;5.78;53.83;97142.81;5049270;28;20444;-66
2021/03/22 10:42:51;;;;;;;10.17;3.17;;;;;;;6.01;53.84;97143.56;5050814;28;20943;-67
2021/03/22 10:45:19;;;;;;;10.90;4.10;;;;;;;5.74;55.36;97152.63;5034017;28;20791;-68
2021/03/22 10:47:45;;;;;;;10.73;3.27;;;;;;;5.68;55.90;97158.34;5049339;28;20544;-68
2021/03/22 10:50:20;;;;;;;13.40;4.60;;;;;;;5.65;55.90;97149.03;5044185;28;20540;-68
2021/03/22 10:53:08;;;;;;;10.40;2.80;;;;;;;5.57;57.16;97148.78;5053546;28;20213;-68
2021/03/22 10:55:35;;;;;;;7.87;3.40;;;;;;;5.54;56.58;97143.84;5028906;28;20904;-68
2021/03/22 10:58:02;;;;;;;15.03;3.53;;;;;;;6.15;55.69;97145.06;5056209;28;20524;-68
2021/03/22 11:00:44;;;;;;;9.00;3.13;;;;;;;6.55;54.39;97139.13;5050733;28;20932;-68
2021/03/22 11:03:10;;;;;;;8.53;3.63;;;;;;;6.19;54.74;97143.84;5053649;28;20451;-68
2021/03/22 11:05:39;;;;;;;6.63;2.80;;;;;;;6.34;54.40;97148.75;5054189;28;20865;-68
2021/03/22 11:08:08;;;;;;;15.77;3.93;;;;;;;6.43;53.92;97150.56;5044969;28;20472;-67
2021/03/22 11:10:35;;;;;;;14.20;4.23;;;;;;;6.26;54.44;97150.22;5036738;28;20512;-69
2021/03/22 11:13:02;;;;;;;11.13;3.20;;;;;;;6.66;53.57;97155.66;5059006;28;20464;-68
2021/03/22 11:15:36;;;;;;;19.73;3.90;;;;;;;6.88;52.11;97150.28;5065915;28;20425;-68
2021/03/22 11:18:12;;;;;;;16.30;4.10;;;;;;;7.43;51.02;97146.50;5056685;28;20453;-67
2021/03/22 11:20:42;;;;;;;13.00;3.87;;;;;;;6.74;52.14;97153.22;5034310;28;20497;-68
2021/03/22 11:23:27;;;;;;;9.67;2.93;;;;;;;7.17;51.27;97148.75;5054695;28;20420;-67
2021/03/22 11:25:55;;;;;;;9.03;2.93;;;;;;;7.06;50.76;97152.25;5055569;28;20425;-67
2021/03/22 11:28:20;;;;;;;7.93;2.90;;;;;;;7.08;51.52;97155.56;5054645;28;20521;-67
2021/03/22 11:30:49;;;;;;;11.23;3.90;;;;;;;6.70;52.37;97150.06;5052407;28;20889;-69
2021/03/22 11:33:38;;;;;;;9.20;3.53;;;;;;;7.03;50.97;97150.75;5054563;28;20753;-66
2021/03/22 11:36:12;;;;;;;9.93;3.43;;;;;;;6.51;52.45;97147.34;5054948;28;20440;-68
2021/03/22 11:38:57;;;;;;;16.60;3.93;;;;;;;6.54;52.54;97150.53;5053532;28;20440;-66
2021/03/22 11:41:32;;;;;;;11.83;3.87;;;;;;;6.71;52.33;97135.25;5052162;28;20512;-67
2021/03/22 11:44:23;;;;;;;13.53;3.80;;;;;;;6.47;52.83;97138.16;5062740;28;20420;-67
2021/03/22 11:46:56;;;;;;;8.60;3.27;;;;;;;6.64;52.38;97132.34;5053877;28;20518;-68
2021/03/22 11:49:42;;;;;;;10.97;3.57;;;;;;;6.42;53.04;97144.56;5052085;28;20432;-68
2021/03/22 11:52:19;;;;;;;13.27;3.43;;;;;;;6.84;52.20;97130.66;5056509;28;20421;-69
2021/03/22 11:54:55;;;;;;;15.30;4.03;;;;;;;7.40;51.53;97128.50;5056097;28;20448;-68
2021/03/22 11:57:27;;;;;;;13.03;3.57;;;;;;;7.71;50.56;97133.63;5056111;28;20994;-68
2021/03/22 11:59:58;;;;;;;11.93;3.13;;;;;;;7.83;50.13;97129.91;5051346;28;20417;-68